sensor_id;sensor_type;location;lat;lon;timestamp;pressure;altitude;pressure_sealevel;temperature;humidity
39411;BME280;26579;43.238;23.124;2023-01-28T00:00:07;96476.75;;;3.04;74.82
39411;BME280;26579;43.238;23.124;2023-01-28T00:02:34;96489.06;;;3.13;74.82
39411;BME280;26579;43.238;23.124;2023-01-28T00:05:00;96489.19;;;3.11;75.01
39411;BME280;26579;43.238;23.124;2023-01-28T00:07:26;96484.56;;;3.02;75.49
39411;BME280;26579;43.238;23.124;2023-01-28T00:09:52;96468.88;;;3.07;75.28
39411;BME280;26579;43.238;23.124;2023-01-28T00:12:18;96485.03;;;3.09;75.05
39411;BME280;26579;43.238;23.124;2023-01-28T00:14:43;96465.09;;;2.98;75.05
39411;BME280;26579;43.238;23.124;2023-01-28T00:17:09;96483.28;;;3.09;74.89
39411;BME280;26579;43.238;23.124;2023-01-28T00:19:34;96471.16;;;2.97;75.42
39411;BME280;26579;43.238;23.124;2023-01-28T00:22:00;96485.56;;;3.14;75.08
39411;BME280;26579;43.238;23.124;2023-01-28T00:24:26;96469.69;;;3.07;74.98
39411;BME280;26579;43.238;23.124;2023-01-28T00:26:52;96473.00;;;3.09;74.35
39411;BME280;26579;43.238;23.124;2023-01-28T00:29:17;96474.44;;;2.99;74.84
39411;BME280;26579;43.238;23.124;2023-01-28T00:31:43;96485.84;;;3.09;75.06
39411;BME280;26579;43.238;23.124;2023-01-28T00:34:09;96485.84;;;3.09;74.55
39411;BME280;26579;43.238;23.124;2023-01-28T00:36:34;96478.88;;;3.11;74.35
39411;BME280;26579;43.238;23.124;2023-01-28T00:39:00;96496.78;;;3.13;74.81
39411;BME280;26579;43.238;23.124;2023-01-28T00:41:27;96501.69;;;3.17;74.51
39411;BME280;26579;43.238;23.124;2023-01-28T00:43:53;96484.66;;;3.15;74.50
39411;BME280;26579;43.238;23.124;2023-01-28T00:46:20;96499.81;;;3.20;74.19
39411;BME280;26579;43.238;23.124;2023-01-28T00:48:47;96512.50;;;3.23;73.93
39411;BME280;26579;43.238;23.124;2023-01-28T00:51:15;96499.53;;;3.10;74.68
39411;BME280;26579;43.238;23.124;2023-01-28T00:53:41;96508.09;;;3.25;74.47
39411;BME280;26579;43.238;23.124;2023-01-28T00:56:10;96513.22;;;3.10;74.71
39411;BME280;26579;43.238;23.124;2023-01-28T00:58:36;96523.69;;;3.07;74.46
39411;BME280;26579;43.238;23.124;2023-01-28T01:01:14;96512.41;;;3.10;74.45
39411;BME280;26579;43.238;23.124;2023-01-28T01:03:41;96522.31;;;3.16;74.35
39411;BME280;26579;43.238;23.124;2023-01-28T01:06:09;96521.03;;;3.09;74.86
39411;BME280;26579;43.238;23.124;2023-01-28T01:08:35;96510.63;;;2.96;75.13
39411;BME280;26579;43.238;23.124;2023-01-28T01:11:01;96497.06;;;2.94;74.61
39411;BME280;26579;43.238;23.124;2023-01-28T01:13:27;96508.06;;;2.96;74.51
39411;BME280;26579;43.238;23.124;2023-01-28T01:16:06;96520.03;;;3.11;74.65
39411;BME280;26579;43.238;23.124;2023-01-28T01:18:32;96514.22;;;3.08;74.70
39411;BME280;26579;43.238;23.124;2023-01-28T01:20:58;96511.94;;;3.03;74.89
39411;BME280;26579;43.238;23.124;2023-01-28T01:23:29;96511.59;;;3.09;74.82
39411;BME280;26579;43.238;23.124;2023-01-28T01:25:55;96518.81;;;3.17;74.30
39411;BME280;26579;43.238;23.124;2023-01-28T01:28:21;96517.47;;;3.11;74.14
39411;BME280;26579;43.238;23.124;2023-01-28T01:30:48;96517.09;;;3.03;74.94
39411;BME280;26579;43.238;23.124;2023-01-28T01:33:14;96520.19;;;3.08;74.64
39411;BME280;26579;43.238;23.124;2023-01-28T01:35:40;96505.13;;;3.02;74.30
39411;BME280;26579;43.238;23.124;2023-01-28T01:38:06;96504.03;;;3.06;74.00
39411;BME280;26579;43.238;23.124;2023-01-28T01:40:32;96504.94;;;3.05;74.21
39411;BME280;26579;43.238;23.124;2023-01-28T01:42:59;96506.69;;;3.05;73.97
39411;BME280;26579;43.238;23.124;2023-01-28T01:45:25;96522.75;;;3.08;73.99
39411;BME280;26579;43.238;23.124;2023-01-28T01:48:03;96526.72;;;3.14;74.06
39411;BME280;26579;43.238;23.124;2023-01-28T01:50:43;96527.56;;;3.14;74.17
39411;BME280;26579;43.238;23.124;2023-01-28T01:53:16;96526.56;;;3.03;74.18
39411;BME280;26579;43.238;23.124;2023-01-28T01:55:46;96539.50;;;3.01;74.94
39411;BME280;26579;43.238;23.124;2023-01-28T01:58:16;96528.28;;;3.16;74.78
39411;BME280;26579;43.238;23.124;2023-01-28T02:00:43;96517.09;;;3.03;74.71
39411;BME280;26579;43.238;23.124;2023-01-28T02:03:10;96540.94;;;3.05;74.99
39411;BME280;26579;43.238;23.124;2023-01-28T02:05:37;96530.66;;;3.05;74.92
39411;BME280;26579;43.238;23.124;2023-01-28T02:08:03;96535.28;;;3.00;74.86
39411;BME280;26579;43.238;23.124;2023-01-28T02:10:30;96521.47;;;3.01;74.42
39411;BME280;26579;43.238;23.124;2023-01-28T02:12:56;96540.72;;;3.24;74.00
39411;BME280;26579;43.238;23.124;2023-01-28T02:15:25;96537.31;;;3.24;73.94
39411;BME280;26579;43.238;23.124;2023-01-28T02:17:51;96527.47;;;3.16;74.51
39411;BME280;26579;43.238;23.124;2023-01-28T02:20:25;96541.66;;;3.23;73.99
39411;BME280;26579;43.238;23.124;2023-01-28T02:31:15;96552.22;;;3.33;74.36
39411;BME280;26579;43.238;23.124;2023-01-28T02:34:20;96538.03;;;3.26;74.34
39411;BME280;26579;43.238;23.124;2023-01-28T02:39:22;96543.34;;;3.08;74.70
39411;BME280;26579;43.238;23.124;2023-01-28T02:41:55;96547.59;;;3.09;75.06
39411;BME280;26579;43.238;23.124;2023-01-28T02:44:22;96552.56;;;3.12;75.18
39411;BME280;26579;43.238;23.124;2023-01-28T02:46:51;96531.03;;;2.99;74.75
39411;BME280;26579;43.238;23.124;2023-01-28T02:49:27;96551.81;;;3.10;75.33
39411;BME280;26579;43.238;23.124;2023-01-28T02:52:05;96554.78;;;3.18;74.83
39411;BME280;26579;43.238;23.124;2023-01-28T02:57:46;96547.13;;;3.17;74.64
39411;BME280;26579;43.238;23.124;2023-01-28T03:02:59;96552.09;;;3.06;75.52
39411;BME280;26579;43.238;23.124;2023-01-28T03:05:34;96564.81;;;3.23;75.62
39411;BME280;26579;43.238;23.124;2023-01-28T03:08:03;96566.19;;;3.29;75.32
39411;BME280;26579;43.238;23.124;2023-01-28T03:10:30;96568.66;;;3.30;75.04
39411;BME280;26579;43.238;23.124;2023-01-28T03:12:57;96552.94;;;3.21;75.45
39411;BME280;26579;43.238;23.124;2023-01-28T03:15:28;96567.06;;;3.13;75.80
39411;BME280;26579;43.238;23.124;2023-01-28T03:18:10;96570.03;;;3.22;75.79
39411;BME280;26579;43.238;23.124;2023-01-28T03:20:42;96566.53;;;3.23;76.13
39411;BME280;26579;43.238;23.124;2023-01-28T03:23:13;96567.06;;;3.13;75.99
39411;BME280;26579;43.238;23.124;2023-01-28T03:25:43;96573.41;;;3.22;75.56
39411;BME280;26579;43.238;23.124;2023-01-28T03:28:13;96579.94;;;3.28;75.23
39411;BME280;26579;43.238;23.124;2023-01-28T03:30:51;96579.06;;;3.29;75.14
39411;BME280;26579;43.238;23.124;2023-01-28T03:33:28;96575.63;;;3.28;75.11
39411;BME280;26579;43.238;23.124;2023-01-28T03:35:55;96571.06;;;3.33;74.97
39411;BME280;26579;43.238;23.124;2023-01-28T03:38:22;96558.94;;;3.35;74.58
39411;BME280;26579;43.238;23.124;2023-01-28T03:40:50;96577.50;;;3.40;74.54
39411;BME280;26579;43.238;23.124;2023-01-28T03:43:17;96557.53;;;3.30;74.99
39411;BME280;26579;43.238;23.124;2023-01-28T03:45:45;96567.00;;;3.15;75.75
39411;BME280;26579;43.238;23.124;2023-01-28T03:48:12;96565.53;;;3.25;75.41
39411;BME280;26579;43.238;23.124;2023-01-28T03:50:37;96578.19;;;3.28;75.31
39411;BME280;26579;43.238;23.124;2023-01-28T03:53:04;96551.06;;;3.08;75.63
39411;BME280;26579;43.238;23.124;2023-01-28T03:55:34;96576.38;;;3.30;75.38
39411;BME280;26579;43.238;23.124;2023-01-28T03:58:00;96580.31;;;3.22;75.86
39411;BME280;26579;43.238;23.124;2023-01-28T04:00:25;96592.94;;;3.26;75.61
39411;BME280;26579;43.238;23.124;2023-01-28T04:02:53;96578.84;;;3.17;75.11
39411;BME280;26579;43.238;23.124;2023-01-28T04:05:19;96582.47;;;2.99;75.98
39411;BME280;26579;43.238;23.124;2023-01-28T04:07:49;96584.56;;;2.92;76.85
39411;BME280;26579;43.238;23.124;2023-01-28T04:10:47;96593.72;;;3.12;76.04
39411;BME280;26579;43.238;23.124;2023-01-28T04:13:30;96601.59;;;3.09;76.42
39411;BME280;26579;43.238;23.124;2023-01-28T04:15:56;96603.13;;;2.98;76.63
39411;BME280;26579;43.238;23.124;2023-01-28T04:18:22;96607.09;;;3.03;76.67
39411;BME280;26579;43.238;23.124;2023-01-28T04:20:48;96608.03;;;3.16;76.23
39411;BME280;26579;43.238;23.124;2023-01-28T04:23:15;96592.34;;;3.21;75.18
39411;BME280;26579;43.238;23.124;2023-01-28T04:25:41;96592.44;;;3.20;75.22
39411;BME280;26579;43.238;23.124;2023-01-28T04:28:08;96604.88;;;3.27;75.16
39411;BME280;26579;43.238;23.124;2023-01-28T04:30:34;96608.63;;;3.22;75.26
39411;BME280;26579;43.238;23.124;2023-01-28T04:33:21;96616.50;;;3.18;75.65
39411;BME280;26579;43.238;23.124;2023-01-28T04:35:53;96619.38;;;3.28;75.60
39411;BME280;26579;43.238;23.124;2023-01-28T04:38:42;96608.41;;;3.10;75.68
39411;BME280;26579;43.238;23.124;2023-01-28T04:41:36;96626.44;;;3.25;75.42
39411;BME280;26579;43.238;23.124;2023-01-28T04:44:07;96627.38;;;3.24;75.20
39411;BME280;26579;43.238;23.124;2023-01-28T04:46:50;96614.75;;;3.19;75.28
39411;BME280;26579;43.238;23.124;2023-01-28T04:49:30;96615.94;;;3.13;75.02
39411;BME280;26579;43.238;23.124;2023-01-28T04:52:14;96638.72;;;3.20;75.69
39411;BME280;26579;43.238;23.124;2023-01-28T04:55:15;96620.56;;;3.23;74.85
39411;BME280;26579;43.238;23.124;2023-01-28T04:57:41;96638.56;;;3.23;75.31
39411;BME280;26579;43.238;23.124;2023-01-28T05:00:08;96640.41;;;3.21;75.48
39411;BME280;26579;43.238;23.124;2023-01-28T05:02:34;96635.91;;;3.24;75.31
39411;BME280;26579;43.238;23.124;2023-01-28T05:05:00;96643.16;;;3.17;75.15
39411;BME280;26579;43.238;23.124;2023-01-28T05:07:51;96639.47;;;3.22;75.05
39411;BME280;26579;43.238;23.124;2023-01-28T05:10:17;96633.13;;;3.13;74.86
39411;BME280;26579;43.238;23.124;2023-01-28T05:12:44;96647.59;;;3.30;74.34
39411;BME280;26579;43.238;23.124;2023-01-28T05:15:10;96655.66;;;3.24;74.74
39411;BME280;26579;43.238;23.124;2023-01-28T05:17:36;96654.53;;;3.13;74.27
39411;BME280;26579;43.238;23.124;2023-01-28T05:20:03;96655.97;;;3.03;75.74
39411;BME280;26579;43.238;23.124;2023-01-28T05:22:28;96663.06;;;3.14;74.71
39411;BME280;26579;43.238;23.124;2023-01-28T05:25:32;96641.44;;;3.02;74.89
39411;BME280;26579;43.238;23.124;2023-01-28T05:27:58;96646.16;;;3.10;75.14
39411;BME280;26579;43.238;23.124;2023-01-28T05:30:24;96643.75;;;3.07;75.07
39411;BME280;26579;43.238;23.124;2023-01-28T05:32:54;96656.84;;;3.18;75.21
39411;BME280;26579;43.238;23.124;2023-01-28T05:35:20;96657.91;;;3.14;74.78
39411;BME280;26579;43.238;23.124;2023-01-28T05:37:46;96660.41;;;3.15;75.00
39411;BME280;26579;43.238;23.124;2023-01-28T05:40:12;96644.34;;;2.96;76.03
39411;BME280;26579;43.238;23.124;2023-01-28T05:42:38;96663.47;;;3.22;75.07
39411;BME280;26579;43.238;23.124;2023-01-28T05:45:33;96663.06;;;3.14;74.80
39411;BME280;26579;43.238;23.124;2023-01-28T05:48:05;96657.38;;;3.09;74.67
39411;BME280;26579;43.238;23.124;2023-01-28T05:50:57;96660.78;;;3.09;74.82
39411;BME280;26579;43.238;23.124;2023-01-28T05:53:37;96660.59;;;2.97;74.72
39411;BME280;26579;43.238;23.124;2023-01-28T05:56:04;96674.63;;;3.07;74.89
39411;BME280;26579;43.238;23.124;2023-01-28T05:58:31;96678.78;;;3.09;75.13
39411;BME280;26579;43.238;23.124;2023-01-28T06:01:00;96668.06;;;3.01;74.58
39411;BME280;26579;43.238;23.124;2023-01-28T06:03:34;96680.69;;;3.06;74.54
39411;BME280;26579;43.238;23.124;2023-01-28T06:06:01;96683.56;;;3.15;74.40
39411;BME280;26579;43.238;23.124;2023-01-28T06:08:26;96684.66;;;3.11;74.60
39411;BME280;26579;43.238;23.124;2023-01-28T06:10:52;96686.91;;;3.17;74.64
39411;BME280;26579;43.238;23.124;2023-01-28T06:13:19;96684.91;;;3.07;74.41
39411;BME280;26579;43.238;23.124;2023-01-28T06:16:00;96704.16;;;3.15;74.44
39411;BME280;26579;43.238;23.124;2023-01-28T06:18:34;96705.56;;;3.21;74.14
39411;BME280;26579;43.238;23.124;2023-01-28T06:21:00;96702.88;;;3.23;74.34
39411;BME280;26579;43.238;23.124;2023-01-28T06:23:25;96710.53;;;3.24;74.42
39411;BME280;26579;43.238;23.124;2023-01-28T06:25:55;96711.38;;;3.09;74.79
39411;BME280;26579;43.238;23.124;2023-01-28T06:28:22;96713.44;;;3.02;74.96
39411;BME280;26579;43.238;23.124;2023-01-28T06:30:48;96712.44;;;3.05;75.14
39411;BME280;26579;43.238;23.124;2023-01-28T06:33:14;96728.94;;;3.16;74.65
39411;BME280;26579;43.238;23.124;2023-01-28T06:35:40;96713.28;;;3.21;73.92
39411;BME280;26579;43.238;23.124;2023-01-28T06:38:06;96726.19;;;3.35;73.34
39411;BME280;26579;43.238;23.124;2023-01-28T06:40:31;96728.00;;;3.33;73.82
39411;BME280;26579;43.238;23.124;2023-01-28T06:42:57;96731.41;;;3.34;74.94
39411;BME280;26579;43.238;23.124;2023-01-28T06:45:23;96708.44;;;3.31;74.76
39411;BME280;26579;43.238;23.124;2023-01-28T06:47:49;96722.81;;;3.35;74.07
39411;BME280;26579;43.238;23.124;2023-01-28T06:50:15;96732.47;;;3.46;74.32
39411;BME280;26579;43.238;23.124;2023-01-28T06:52:41;96723.91;;;3.45;73.97
39411;BME280;26579;43.238;23.124;2023-01-28T06:55:07;96743.81;;;3.57;73.92
39411;BME280;26579;43.238;23.124;2023-01-28T06:57:32;96745.84;;;3.52;73.76
39411;BME280;26579;43.238;23.124;2023-01-28T06:59:58;96741.94;;;3.45;74.62
39411;BME280;26579;43.238;23.124;2023-01-28T07:02:24;96742.53;;;3.34;74.70
39411;BME280;26579;43.238;23.124;2023-01-28T07:04:49;96745.09;;;3.50;74.41
39411;BME280;26579;43.238;23.124;2023-01-28T07:07:15;96742.50;;;3.50;73.69
39411;BME280;26579;43.238;23.124;2023-01-28T07:09:41;96749.88;;;3.56;73.66
39411;BME280;26579;43.238;23.124;2023-01-28T07:12:06;96745.00;;;3.52;74.09
39411;BME280;26579;43.238;23.124;2023-01-28T07:14:32;96750.75;;;3.41;73.96
39411;BME280;26579;43.238;23.124;2023-01-28T07:16:58;96750.09;;;3.37;74.93
39411;BME280;26579;43.238;23.124;2023-01-28T07:19:23;96748.09;;;3.43;74.63
39411;BME280;26579;43.238;23.124;2023-01-28T07:21:49;96742.38;;;3.37;74.49
39411;BME280;26579;43.238;23.124;2023-01-28T07:24:15;96740.28;;;3.44;74.21
39411;BME280;26579;43.238;23.124;2023-01-28T07:26:40;96751.81;;;3.53;74.46
39411;BME280;26579;43.238;23.124;2023-01-28T07:29:08;96769.13;;;3.65;73.93
39411;BME280;26579;43.238;23.124;2023-01-28T07:31:33;96760.59;;;3.65;74.01
39411;BME280;26579;43.238;23.124;2023-01-28T07:33:59;96780.59;;;3.59;74.55
39411;BME280;26579;43.238;23.124;2023-01-28T07:36:25;96766.97;;;3.57;74.52
39411;BME280;26579;43.238;23.124;2023-01-28T07:38:50;96765.97;;;3.60;74.55
39411;BME280;26579;43.238;23.124;2023-01-28T07:41:16;96776.56;;;3.55;74.73
39411;BME280;26579;43.238;23.124;2023-01-28T07:43:42;96759.13;;;3.45;75.22
39411;BME280;26579;43.238;23.124;2023-01-28T07:46:07;96789.31;;;3.57;75.67
39411;BME280;26579;43.238;23.124;2023-01-28T07:48:33;96776.44;;;3.57;75.30
39411;BME280;26579;43.238;23.124;2023-01-28T07:50:59;96792.72;;;3.73;74.67
39411;BME280;26579;43.238;23.124;2023-01-28T07:53:25;96790.91;;;3.59;75.46
39411;BME280;26579;43.238;23.124;2023-01-28T07:55:50;96799.78;;;3.70;75.14
39411;BME280;26579;43.238;23.124;2023-01-28T07:58:16;96783.97;;;3.76;74.33
39411;BME280;26579;43.238;23.124;2023-01-28T08:00:42;96794.75;;;3.82;74.05
39411;BME280;26579;43.238;23.124;2023-01-28T08:03:13;96790.16;;;3.88;73.91
39411;BME280;26579;43.238;23.124;2023-01-28T08:05:43;96785.03;;;3.88;74.13
39411;BME280;26579;43.238;23.124;2023-01-28T08:08:10;96797.53;;;3.94;75.00
39411;BME280;26579;43.238;23.124;2023-01-28T08:10:36;96795.53;;;3.99;74.47
39411;BME280;26579;43.238;23.124;2023-01-28T08:13:03;96784.38;;;3.98;74.19
39411;BME280;26579;43.238;23.124;2023-01-28T08:15:29;96801.06;;;4.07;74.26
39411;BME280;26579;43.238;23.124;2023-01-28T08:17:56;96787.63;;;4.02;74.00
39411;BME280;26579;43.238;23.124;2023-01-28T08:20:24;96803.13;;;4.16;73.92
39411;BME280;26579;43.238;23.124;2023-01-28T08:22:50;96804.31;;;4.11;74.09
39411;BME280;26579;43.238;23.124;2023-01-28T08:25:15;96806.38;;;4.04;74.52
39411;BME280;26579;43.238;23.124;2023-01-28T08:27:41;96809.53;;;4.09;74.35
39411;BME280;26579;43.238;23.124;2023-01-28T08:30:07;96808.34;;;4.15;73.92
39411;BME280;26579;43.238;23.124;2023-01-28T08:32:34;96801.34;;;4.02;74.21
39411;BME280;26579;43.238;23.124;2023-01-28T08:35:00;96814.06;;;4.20;73.67
39411;BME280;26579;43.238;23.124;2023-01-28T08:37:26;96808.75;;;4.23;74.08
39411;BME280;26579;43.238;23.124;2023-01-28T08:39:51;96809.84;;;4.33;73.70
39411;BME280;26579;43.238;23.124;2023-01-28T08:42:17;96825.03;;;4.23;73.97
39411;BME280;26579;43.238;23.124;2023-01-28T08:44:43;96817.22;;;4.25;73.51
39411;BME280;26579;43.238;23.124;2023-01-28T08:47:08;96801.00;;;4.23;73.30
39411;BME280;26579;43.238;23.124;2023-01-28T08:49:34;96815.56;;;4.38;73.52
39411;BME280;26579;43.238;23.124;2023-01-28T08:52:00;96815.94;;;4.46;73.27
39411;BME280;26579;43.238;23.124;2023-01-28T08:54:28;96812.16;;;4.38;72.49
39411;BME280;26579;43.238;23.124;2023-01-28T08:56:53;96806.09;;;4.53;72.11
39411;BME280;26579;43.238;23.124;2023-01-28T08:59:19;96820.66;;;4.54;72.10
39411;BME280;26579;43.238;23.124;2023-01-28T09:01:45;96820.94;;;4.64;72.12
39411;BME280;26579;43.238;23.124;2023-01-28T09:04:10;96803.44;;;4.54;72.19
39411;BME280;26579;43.238;23.124;2023-01-28T09:06:36;96815.41;;;4.56;72.81
39411;BME280;26579;43.238;23.124;2023-01-28T09:09:02;96806.84;;;4.55;72.32
39411;BME280;26579;43.238;23.124;2023-01-28T09:11:29;96809.88;;;4.62;72.15
39411;BME280;26579;43.238;23.124;2023-01-28T09:13:56;96817.59;;;4.76;71.85
39411;BME280;26579;43.238;23.124;2023-01-28T09:16:22;96818.44;;;4.76;71.73
39411;BME280;26579;43.238;23.124;2023-01-28T09:18:48;96816.41;;;4.82;72.14
39411;BME280;26579;43.238;23.124;2023-01-28T09:21:14;96820.44;;;4.86;71.77
39411;BME280;26579;43.238;23.124;2023-01-28T09:23:40;96826.47;;;4.86;71.20
39411;BME280;26579;43.238;23.124;2023-01-28T09:26:06;96815.28;;;4.86;70.18
39411;BME280;26579;43.238;23.124;2023-01-28T09:28:32;96816.13;;;4.86;69.53
39411;BME280;26579;43.238;23.124;2023-01-28T09:31:06;96816.59;;;4.93;68.90
39411;BME280;26579;43.238;23.124;2023-01-28T09:33:33;96815.03;;;4.90;69.94
39411;BME280;26579;43.238;23.124;2023-01-28T09:36:00;96822.38;;;4.96;70.70
39411;BME280;26579;43.238;23.124;2023-01-28T09:38:28;96810.59;;;4.92;70.37
39411;BME280;26579;43.238;23.124;2023-01-28T09:40:53;96828.28;;;4.98;70.81
39411;BME280;26579;43.238;23.124;2023-01-28T09:46:30;96819.63;;;4.99;70.37
39411;BME280;26579;43.238;23.124;2023-01-28T09:48:57;96816.66;;;5.06;70.67
39411;BME280;26579;43.238;23.124;2023-01-28T09:53:55;96816.66;;;5.06;70.85
39411;BME280;26579;43.238;23.124;2023-01-28T09:56:38;96816.66;;;5.06;71.09
39411;BME280;26579;43.238;23.124;2023-01-28T09:59:16;96815.75;;;5.07;70.97
39411;BME280;26579;43.238;23.124;2023-01-28T10:05:06;96811.47;;;5.20;69.54
39411;BME280;26579;43.238;23.124;2023-01-28T10:10:26;96814.41;;;5.28;70.21
39411;BME280;26579;43.238;23.124;2023-01-28T10:13:04;96809.44;;;5.25;69.17
39411;BME280;26579;43.238;23.124;2023-01-28T10:18:09;96792.09;;;5.27;68.54
39411;BME280;26579;43.238;23.124;2023-01-28T10:20:48;96806.44;;;5.45;67.41
39411;BME280;26579;43.238;23.124;2023-01-28T10:25:46;96819.13;;;5.49;68.67
39411;BME280;26579;43.238;23.124;2023-01-28T10:28:21;96797.47;;;5.24;67.40
39411;BME280;26579;43.238;23.124;2023-01-28T10:30:49;96808.84;;;5.34;67.51
39411;BME280;26579;43.238;23.124;2023-01-28T10:35:43;96816.00;;;5.43;66.12
39411;BME280;26579;43.238;23.124;2023-01-28T10:38:13;96808.56;;;5.39;67.28
39411;BME280;26579;43.238;23.124;2023-01-28T10:40:40;96810.69;;;5.32;69.55
39411;BME280;26579;43.238;23.124;2023-01-28T10:43:07;96816.78;;;5.31;69.30
39411;BME280;26579;43.238;23.124;2023-01-28T10:48:23;96815.78;;;5.34;68.45
39411;BME280;26579;43.238;23.124;2023-01-28T10:50:52;96813.38;;;5.31;69.30
39411;BME280;26579;43.238;23.124;2023-01-28T10:53:18;96807.41;;;5.30;69.28
39411;BME280;26579;43.238;23.124;2023-01-28T10:58:33;96818.22;;;5.50;65.52
39411;BME280;26579;43.238;23.124;2023-01-28T11:01:05;96814.59;;;5.52;63.97
39411;BME280;26579;43.238;23.124;2023-01-28T11:03:32;96808.94;;;5.47;65.93
39411;BME280;26579;43.238;23.124;2023-01-28T11:05:58;96790.50;;;5.39;67.74
39411;BME280;26579;43.238;23.124;2023-01-28T11:08:26;96812.41;;;5.46;68.75
39411;BME280;26579;43.238;23.124;2023-01-28T11:10:53;96805.69;;;5.43;64.83
39411;BME280;26579;43.238;23.124;2023-01-28T11:13:26;96813.75;;;5.39;65.43
39411;BME280;26579;43.238;23.124;2023-01-28T11:18:25;96802.66;;;5.37;64.94
39411;BME280;26579;43.238;23.124;2023-01-28T11:21:20;96816.22;;;5.40;67.19
39411;BME280;26579;43.238;23.124;2023-01-28T11:23:56;96804.97;;;5.41;66.06
39411;BME280;26579;43.238;23.124;2023-01-28T11:26:31;96798.72;;;5.31;66.28
39411;BME280;26579;43.238;23.124;2023-01-28T11:28:58;96793.28;;;5.36;67.53
39411;BME280;26579;43.238;23.124;2023-01-28T11:31:25;96816.13;;;5.42;67.76
39411;BME280;26579;43.238;23.124;2023-01-28T11:33:59;96809.75;;;5.48;65.82
39411;BME280;26579;43.238;23.124;2023-01-28T11:36:28;96810.56;;;5.48;66.10
39411;BME280;26579;43.238;23.124;2023-01-28T11:38:58;96814.16;;;5.45;66.44
39411;BME280;26579;43.238;23.124;2023-01-28T11:41:35;96803.84;;;5.45;67.50
39411;BME280;26579;43.238;23.124;2023-01-28T11:44:15;96796.44;;;5.27;66.15
39411;BME280;26579;43.238;23.124;2023-01-28T12:01:26;96801.34;;;5.17;63.08
39411;BME280;26579;43.238;23.124;2023-01-28T12:04:20;96790.66;;;5.09;64.44
39411;BME280;26579;43.238;23.124;2023-01-28T12:17:34;96804.84;;;5.16;66.15
39411;BME280;26579;43.238;23.124;2023-01-28T12:20:17;96805.59;;;5.18;67.11
39411;BME280;26579;43.238;23.124;2023-01-28T12:25:37;96815.53;;;5.24;67.04
39411;BME280;26579;43.238;23.124;2023-01-28T12:31:00;96800.69;;;5.13;67.51
39411;BME280;26579;43.238;23.124;2023-01-28T12:41:40;96812.66;;;5.29;68.88
39411;BME280;26579;43.238;23.124;2023-01-28T12:44:11;96819.69;;;5.27;69.08
39411;BME280;26579;43.238;23.124;2023-01-28T12:46:51;96802.34;;;5.14;69.18
39411;BME280;26579;43.238;23.124;2023-01-28T12:49:23;96809.72;;;5.20;68.99
39411;BME280;26579;43.238;23.124;2023-01-28T12:52:36;96783.97;;;5.06;69.51
39411;BME280;26579;43.238;23.124;2023-01-28T12:57:50;96828.06;;;5.30;68.09
39411;BME280;26579;43.238;23.124;2023-01-28T13:00:31;96818.00;;;5.26;65.23
39411;BME280;26579;43.238;23.124;2023-01-28T13:03:27;96808.44;;;5.13;64.78
39411;BME280;26579;43.238;23.124;2023-01-28T13:06:00;96831.03;;;5.10;65.29
39411;BME280;26579;43.238;23.124;2023-01-28T13:08:29;96833.25;;;5.16;65.37
39411;BME280;26579;43.238;23.124;2023-01-28T13:10:59;96826.69;;;5.10;66.29
39411;BME280;26579;43.238;23.124;2023-01-28T13:13:37;96820.78;;;5.08;64.76
39411;BME280;26579;43.238;23.124;2023-01-28T13:16:08;96830.47;;;5.19;64.65
39411;BME280;26579;43.238;23.124;2023-01-28T13:23:49;96840.25;;;5.14;65.82
39411;BME280;26579;43.238;23.124;2023-01-28T13:28:46;96842.75;;;5.01;68.24
39411;BME280;26579;43.238;23.124;2023-01-28T13:31:14;96840.38;;;4.84;70.37
39411;BME280;26579;43.238;23.124;2023-01-28T13:33:40;96842.13;;;4.83;70.55
39411;BME280;26579;43.238;23.124;2023-01-28T13:38:46;96844.78;;;4.82;71.37
39411;BME280;26579;43.238;23.124;2023-01-28T13:41:11;96831.44;;;4.89;71.33
39411;BME280;26579;43.238;23.124;2023-01-28T13:43:39;96851.50;;;4.84;71.82
39411;BME280;26579;43.238;23.124;2023-01-28T13:51:03;96844.16;;;4.78;69.67
39411;BME280;26579;43.238;23.124;2023-01-28T13:53:43;96852.16;;;4.88;69.77
39411;BME280;26579;43.238;23.124;2023-01-28T13:56:27;96855.66;;;4.87;69.02
39411;BME280;26579;43.238;23.124;2023-01-28T14:04:55;96861.56;;;4.74;71.98
39411;BME280;26579;43.238;23.124;2023-01-28T14:13:49;96854.28;;;4.81;72.63
39411;BME280;26579;43.238;23.124;2023-01-28T14:17:12;96865.50;;;4.66;72.69
39411;BME280;26579;43.238;23.124;2023-01-28T14:19:25;96866.59;;;4.62;73.51
39411;BME280;26579;43.238;23.124;2023-01-28T14:21:55;96865.50;;;4.51;74.36
39411;BME280;26579;43.238;23.124;2023-01-28T14:24:21;96849.00;;;4.40;74.74
39411;BME280;26579;43.238;23.124;2023-01-28T14:32:28;96876.00;;;4.48;74.70
39411;BME280;26579;43.238;23.124;2023-01-28T14:34:57;96877.72;;;4.48;74.89
39411;BME280;26579;43.238;23.124;2023-01-28T14:37:28;96866.56;;;4.47;74.67
39411;BME280;26579;43.238;23.124;2023-01-28T14:39:59;96883.44;;;4.53;74.83
39411;BME280;26579;43.238;23.124;2023-01-28T14:42:29;96877.19;;;4.57;74.55
39411;BME280;26579;43.238;23.124;2023-01-28T14:56:02;96878.91;;;4.28;74.34
39411;BME280;26579;43.238;23.124;2023-01-28T14:58:40;96876.09;;;4.17;74.78
39411;BME280;26579;43.238;23.124;2023-01-28T15:01:41;96895.00;;;4.31;74.86
39411;BME280;26579;43.238;23.124;2023-01-28T15:04:22;96898.81;;;4.40;74.60
39411;BME280;26579;43.238;23.124;2023-01-28T15:06:48;96904.13;;;4.37;74.77
39411;BME280;26579;43.238;23.124;2023-01-28T15:09:14;96899.38;;;4.45;74.24
39411;BME280;26579;43.238;23.124;2023-01-28T15:11:41;96898.03;;;4.38;74.35
39411;BME280;26579;43.238;23.124;2023-01-28T15:14:21;96908.94;;;4.43;74.59
39411;BME280;26579;43.238;23.124;2023-01-28T15:16:50;96889.03;;;4.31;74.71
39411;BME280;26579;43.238;23.124;2023-01-28T15:19:16;96897.19;;;4.23;75.30
39411;BME280;26579;43.238;23.124;2023-01-28T15:21:47;96899.88;;;4.22;75.43
39411;BME280;26579;43.238;23.124;2023-01-28T15:24:13;96901.81;;;4.32;75.30